KWWD/WWD METAR and TAF weather

Enter ICAO airport designator
Station Type Date Time Source
KWWD METAR 2021/10/20 05:56 UTC NOAA

KWWD 200556Z AUTO 26008KT 10SM CLR 17/12 A3007 RMK AO2 SLP183 T01670117 10183 20167 55002 $


Station Type Date Time Source
KWWD Decoded METAR 2021/10/20 05:56 UTC NOAA

Wildwood, Cape May County Airport, NJ, United States (KWWD) 39-01N 074-55W
Oct 20, 2021 - 01:56 AM EDT / 2021.10.20 0556 UTC
Wind: from the W (260 degrees) at 9 MPH (8 KT):0
Visibility: 10 mile(s):0
Sky conditions: clear
Temperature: 62.1 F (16.7 C)
Dew Point: 53.1 F (11.7 C)
Relative Humidity: 72%
Pressure (altimeter): 30.07 in. Hg (1018 hPa)
Pressure tendency: 0.01 inches (0.2 hPa) lower than three hours ago
ob: KWWD 200556Z AUTO 26008KT 10SM CLR 17/12 A3007 RMK AO2 SLP183 T01670117 10183 20167 55002
cycle: 6

Station Type Date Time Source
KWWD TAF UTC NOAA

Error!

Example: see airport list